createdAt,value
2024-03-04T00:00:32.132Z,77.87
2024-03-04T00:01:32.196Z,77.77
2024-03-04T00:02:32.398Z,77.57
2024-03-04T00:03:32.140Z,77.47
2024-03-04T00:04:32.196Z,77.27
2024-03-04T00:05:32.149Z,77.08
2024-03-04T00:06:32.091Z,77.08
2024-03-04T00:07:32.610Z,76.97
2024-03-04T00:08:31.968Z,76.97
2024-03-04T00:09:32.989Z,76.97
2024-03-04T00:10:32.254Z,77.08
2024-03-04T00:11:32.008Z,76.97
2024-03-04T00:12:31.992Z,77.08
2024-03-04T00:13:32.030Z,77.17
2024-03-04T00:14:32.307Z,77.08
2024-03-04T00:15:32.119Z,77.17
2024-03-04T00:16:33.881Z,77.27
2024-03-04T00:17:32.133Z,77.27
2024-03-04T00:18:32.538Z,77.37
2024-03-04T00:19:32.268Z,77.37
2024-03-04T00:20:32.062Z,77.47
2024-03-04T00:21:32.201Z,77.47
2024-03-04T00:22:33.306Z,77.37
2024-03-04T00:23:32.366Z,77.47
2024-03-04T00:24:31.986Z,77.57
2024-03-04T00:25:32.726Z,77.67
2024-03-04T00:26:31.882Z,77.57
2024-03-04T00:27:31.904Z,77.70
2024-03-04T00:28:32.045Z,77.70
2024-03-04T00:29:31.999Z,77.61
2024-03-04T00:30:31.888Z,77.81
2024-03-04T00:31:31.891Z,77.77
2024-03-04T00:32:32.057Z,77.67
2024-03-04T00:33:31.854Z,77.57
2024-03-04T00:34:31.978Z,77.27
2024-03-04T00:35:31.928Z,77.27
2024-03-04T00:36:31.847Z,77.08
2024-03-04T00:37:31.768Z,77.08
2024-03-04T00:38:31.744Z,77.08
2024-03-04T00:39:31.785Z,76.97
2024-03-04T00:40:32.266Z,76.97
2024-03-04T00:41:31.661Z,76.87
2024-03-04T00:42:31.991Z,76.74
2024-03-04T00:43:31.854Z,76.78
2024-03-04T00:44:31.618Z,76.78
2024-03-04T00:45:31.641Z,76.78
2024-03-04T00:46:31.936Z,76.97
2024-03-04T00:47:31.629Z,77.08
2024-03-04T00:48:31.711Z,77.17
2024-03-04T00:49:31.775Z,77.08
2024-03-04T00:50:31.726Z,77.08
2024-03-04T00:51:32.129Z,77.08
2024-03-04T00:52:32.009Z,77.17
2024-03-04T00:53:31.546Z,77.17
2024-03-04T00:54:31.570Z,76.87
2024-03-04T00:55:31.695Z,76.97
2024-03-04T00:56:32.690Z,76.87
2024-03-04T00:57:31.540Z,76.78
2024-03-04T00:58:31.865Z,76.68
2024-03-04T00:59:31.476Z,76.57
2024-03-04T01:00:31.708Z,76.68
2024-03-04T01:01:31.662Z,76.68
2024-03-04T01:02:31.530Z,76.57
2024-03-04T01:03:31.426Z,76.57
2024-03-04T01:04:31.543Z,76.38
2024-03-04T01:05:31.571Z,76.57
2024-03-04T01:06:31.338Z,76.57
2024-03-04T01:07:31.328Z,76.68
2024-03-04T01:08:31.436Z,76.68
2024-03-04T01:09:31.461Z,76.48
2024-03-04T01:10:31.531Z,76.57
2024-03-04T01:11:31.416Z,76.57
2024-03-04T01:12:31.235Z,76.48
2024-03-04T01:13:31.312Z,76.48
2024-03-04T01:14:31.249Z,76.38
2024-03-04T01:15:31.297Z,76.18
2024-03-04T01:16:31.598Z,75.88
2024-03-04T01:17:31.367Z,75.88
2024-03-04T01:18:31.283Z,75.78
2024-03-04T01:19:31.216Z,75.98
2024-03-04T01:20:31.186Z,76.21
2024-03-04T01:21:31.395Z,76.32
2024-03-04T01:22:31.658Z,76.81
2024-03-04T01:23:31.143Z,77.11
2024-03-04T01:24:31.216Z,77.01
2024-03-04T01:25:31.219Z,77.01
2024-03-04T01:26:31.118Z,77.01
2024-03-04T01:27:31.120Z,76.91
2024-03-04T01:28:31.240Z,76.72
2024-03-04T01:29:31.085Z,76.72
2024-03-04T01:30:31.146Z,76.72
2024-03-04T01:31:31.156Z,76.57
2024-03-04T01:32:31.032Z,76.57
2024-03-04T01:33:31.144Z,76.48
2024-03-04T01:34:31.357Z,76.38
2024-03-04T01:35:31.115Z,76.38
2024-03-04T01:36:30.972Z,76.38
2024-03-04T01:37:31.066Z,76.38
2024-03-04T01:38:30.936Z,76.08
2024-03-04T01:39:31.048Z,76.08
2024-03-04T01:40:31.314Z,75.98
2024-03-04T01:41:31.160Z,76.02
2024-03-04T01:42:31.020Z,76.02
2024-03-04T01:43:31.015Z,76.12
2024-03-04T01:44:31.238Z,76.21
2024-03-04T01:45:30.954Z,76.21
2024-03-04T01:46:31.118Z,76.12
2024-03-04T01:47:31.013Z,76.08
2024-03-04T01:48:30.862Z,75.98
2024-03-04T01:49:31.221Z,75.98
2024-03-04T01:50:30.935Z,75.88
2024-03-04T01:51:30.893Z,75.68
2024-03-04T01:52:30.860Z,75.68
2024-03-04T01:53:30.789Z,75.59
2024-03-04T01:54:30.949Z,75.78
2024-03-04T01:55:30.889Z,75.78
2024-03-04T01:56:30.748Z,75.78
2024-03-04T01:57:30.747Z,75.78
2024-03-04T01:58:31.015Z,75.59
2024-03-04T01:59:30.877Z,75.68
2024-03-04T02:00:30.879Z,75.78
2024-03-04T02:01:30.956Z,75.68
2024-03-04T02:02:30.795Z,75.68
2024-03-04T02:03:30.688Z,75.68
2024-03-04T02:04:30.925Z,75.68
2024-03-04T02:05:30.706Z,75.59
2024-03-04T02:06:30.775Z,75.38
2024-03-04T02:07:30.829Z,75.38
2024-03-04T02:08:30.720Z,75.48
2024-03-04T02:09:30.934Z,75.59
2024-03-04T02:10:30.754Z,75.59
2024-03-04T02:11:31.391Z,75.68
2024-03-04T02:12:30.850Z,75.78
2024-03-04T02:13:30.675Z,75.88
2024-03-04T02:14:30.822Z,75.78
2024-03-04T02:15:30.638Z,75.68
2024-03-04T02:16:30.954Z,75.78
2024-03-04T02:17:30.812Z,75.59
2024-03-04T02:18:30.695Z,75.59
2024-03-04T02:19:30.633Z,75.68
2024-03-04T02:20:30.598Z,75.68
2024-03-04T02:21:30.812Z,75.68
2024-03-04T02:22:30.498Z,75.68
2024-03-04T02:23:30.637Z,74.59
2024-03-04T02:24:30.484Z,74.39
2024-03-04T02:25:30.671Z,75.12
2024-03-04T02:26:30.431Z,75.22
2024-03-04T02:27:30.861Z,75.02
2024-03-04T02:28:30.587Z,74.63
2024-03-04T02:29:30.559Z,74.63
2024-03-04T02:30:30.567Z,74.52
2024-03-04T02:31:30.777Z,74.23
2024-03-04T02:32:30.375Z,73.93
2024-03-04T02:33:31.434Z,73.93
2024-03-04T02:34:30.563Z,73.73
2024-03-04T02:35:30.606Z,73.73
2024-03-04T02:36:30.460Z,73.73
2024-03-04T02:37:30.439Z,73.54
2024-03-04T02:38:30.368Z,72.94
2024-03-04T02:39:31.144Z,73.14
2024-03-04T02:40:30.323Z,73.33
2024-03-04T02:41:30.401Z,73.33
2024-03-04T02:42:30.503Z,73.43
2024-03-04T02:43:30.268Z,73.54
2024-03-04T02:44:30.316Z,73.43
2024-03-04T02:45:30.253Z,73.14
2024-03-04T02:46:30.312Z,73.03
2024-03-04T02:47:30.385Z,73.14
2024-03-04T02:48:30.339Z,73.33
2024-03-04T02:49:30.416Z,73.43
2024-03-04T02:50:30.382Z,73.33
2024-03-04T02:51:30.498Z,73.33
2024-03-04T02:52:30.316Z,73.10
2024-03-04T02:53:30.369Z,73.10
2024-03-04T02:54:30.381Z,73.00
2024-03-04T02:55:30.459Z,72.80
2024-03-04T02:56:30.609Z,72.71
2024-03-04T02:57:30.215Z,72.71
2024-03-04T02:58:30.523Z,72.80
2024-03-04T02:59:30.142Z,72.90
2024-03-04T03:00:30.206Z,73.00
2024-03-04T03:01:30.343Z,73.20
2024-03-04T03:02:30.731Z,73.40
2024-03-04T03:03:30.743Z,73.73
2024-03-04T03:04:30.245Z,73.93
2024-03-04T03:05:30.697Z,74.13
2024-03-04T03:06:30.288Z,74.33
2024-03-04T03:07:30.112Z,74.43
2024-03-04T03:08:30.216Z,74.43
2024-03-04T03:09:29.970Z,74.52
2024-03-04T03:10:30.213Z,74.52
2024-03-04T03:11:30.067Z,74.43
2024-03-04T03:12:30.021Z,74.43
2024-03-04T03:13:30.062Z,73.93
2024-03-04T03:14:30.151Z,74.13
2024-03-04T03:15:30.045Z,74.33
2024-03-04T03:16:30.027Z,73.63
2024-03-04T03:17:30.156Z,73.77
2024-03-04T03:18:29.951Z,73.67
2024-03-04T03:19:30.128Z,73.47
2024-03-04T03:20:29.956Z,73.17
2024-03-04T03:21:30.041Z,72.87
2024-03-04T03:22:29.975Z,72.77
2024-03-04T03:23:30.296Z,72.38
2024-03-04T03:24:29.925Z,72.28
2024-03-04T03:25:29.889Z,72.28
2024-03-04T03:26:29.947Z,71.58
2024-03-04T03:27:29.813Z,71.22
2024-03-04T03:28:29.944Z,70.82
2024-03-04T03:29:29.994Z,70.82
2024-03-04T03:30:29.828Z,71.01
2024-03-04T03:31:29.932Z,70.12
2024-03-04T03:32:30.025Z,70.52
2024-03-04T03:33:29.821Z,70.62
2024-03-04T03:34:29.986Z,70.12
2024-03-04T03:35:29.756Z,69.92
2024-03-04T03:36:29.783Z,70.03
2024-03-04T03:37:29.955Z,69.82
2024-03-04T03:38:29.776Z,69.73
2024-03-04T03:39:29.725Z,69.49
2024-03-04T03:40:29.762Z,69.49
2024-03-04T03:41:29.686Z,69.49
2024-03-04T03:42:29.698Z,69.32
2024-03-04T03:43:29.929Z,69.39
2024-03-04T03:44:29.769Z,69.59
2024-03-04T03:45:30.172Z,69.20
2024-03-04T03:46:29.829Z,69.43
2024-03-04T03:47:29.677Z,69.73
2024-03-04T03:48:30.508Z,69.62
2024-03-04T03:49:29.719Z,69.92
2024-03-04T03:50:29.647Z,70.03
2024-03-04T03:51:29.903Z,70.03
2024-03-04T03:52:29.772Z,70.32
2024-03-04T03:53:29.616Z,70.62
2024-03-04T03:54:29.725Z,70.92
2024-03-04T03:55:29.678Z,71.01
2024-03-04T03:56:29.643Z,71.12
2024-03-04T03:57:41.288Z,71.31
2024-03-04T03:58:29.690Z,71.51
2024-03-04T03:59:29.550Z,71.72
2024-03-04T04:00:31.763Z,71.81
2024-03-04T04:01:30.447Z,72.01
2024-03-04T04:02:29.578Z,72.11
2024-03-04T04:03:29.584Z,72.21
2024-03-04T04:04:29.635Z,72.31
2024-03-04T04:05:29.497Z,72.51
2024-03-04T04:06:29.499Z,72.51
2024-03-04T04:07:29.907Z,72.71
2024-03-04T04:08:29.510Z,72.81
2024-03-04T04:09:29.520Z,72.91
2024-03-04T04:10:29.513Z,73.00
2024-03-04T04:11:29.470Z,73.14
2024-03-04T04:12:29.445Z,73.24
2024-03-04T04:13:29.444Z,73.44
2024-03-04T04:14:29.441Z,73.44
2024-03-04T04:15:30.106Z,73.44
2024-03-04T04:16:29.477Z,73.44
2024-03-04T04:17:29.378Z,73.34
2024-03-04T04:18:29.377Z,73.14
2024-03-04T04:19:29.492Z,73.44
2024-03-04T04:20:29.599Z,73.74
2024-03-04T04:21:29.400Z,73.94
2024-03-04T04:22:29.224Z,74.04
2024-03-04T04:23:29.427Z,74.27
2024-03-04T04:24:29.224Z,74.37
2024-03-04T04:25:29.242Z,74.47
2024-03-04T04:26:29.420Z,74.24
2024-03-04T04:27:29.299Z,74.47
2024-03-04T04:28:29.159Z,74.54
2024-03-04T04:29:29.143Z,74.87
2024-03-04T04:30:29.257Z,74.87
2024-03-04T04:31:29.162Z,74.93
2024-03-04T04:32:29.189Z,75.16
2024-03-04T04:33:29.246Z,75.27
2024-03-04T04:34:29.218Z,75.27
2024-03-04T04:35:29.076Z,75.43
2024-03-04T04:36:29.053Z,75.57
2024-03-04T04:37:29.226Z,75.67
2024-03-04T04:38:29.107Z,75.53
2024-03-04T04:39:29.097Z,75.57
2024-03-04T04:40:29.047Z,75.87
2024-03-04T04:41:30.071Z,75.87
2024-03-04T04:42:29.216Z,75.76
2024-03-04T04:43:29.149Z,75.67
2024-03-04T04:44:29.099Z,75.67
2024-03-04T04:45:29.006Z,75.76
2024-03-04T04:46:28.950Z,75.76
2024-03-04T04:47:29.170Z,75.73
2024-03-04T04:48:28.975Z,75.83
2024-03-04T04:49:28.999Z,75.63
2024-03-04T04:50:29.145Z,75.63
2024-03-04T04:51:28.983Z,75.73
2024-03-04T04:52:29.238Z,75.87
2024-03-04T04:53:29.069Z,75.57
2024-03-04T04:54:28.889Z,75.46
2024-03-04T04:55:28.975Z,75.67
2024-03-04T04:56:29.019Z,75.96
2024-03-04T04:57:28.907Z,75.87
2024-03-04T04:58:28.960Z,75.46
2024-03-04T04:59:29.037Z,75.57
2024-03-04T05:00:28.940Z,75.67
2024-03-04T05:01:29.048Z,75.57
2024-03-04T05:02:29.061Z,75.57
2024-03-04T05:03:46.546Z,75.90
2024-03-04T05:04:43.542Z,76.10
2024-03-04T05:05:29.118Z,76.20
2024-03-04T05:06:28.848Z,76.30
2024-03-04T05:07:28.947Z,76.30
2024-03-04T05:08:29.010Z,76.50
2024-03-04T05:09:28.796Z,76.60
2024-03-04T05:10:28.878Z,76.79
2024-03-04T05:11:29.044Z,76.79
2024-03-04T05:12:28.817Z,77.00
2024-03-04T05:13:28.967Z,77.09
2024-03-04T05:14:28.824Z,77.20
2024-03-04T05:15:28.927Z,77.00
2024-03-04T05:16:28.805Z,77.00
2024-03-04T05:17:28.776Z,77.00
2024-03-04T05:18:28.966Z,77.20
2024-03-04T05:19:28.782Z,77.20
2024-03-04T05:20:28.927Z,77.39
2024-03-04T05:21:28.729Z,77.59
2024-03-04T05:22:28.579Z,77.59
2024-03-04T05:23:28.690Z,77.80
2024-03-04T05:24:28.682Z,77.89
2024-03-04T05:25:28.732Z,77.89
2024-03-04T05:26:28.589Z,77.89
2024-03-04T05:27:30.942Z,77.89
2024-03-04T05:28:28.532Z,77.89
2024-03-04T05:29:28.614Z,77.89
2024-03-04T05:30:28.632Z,77.99
2024-03-04T05:31:28.553Z,78.09
2024-03-04T05:32:28.595Z,78.19
2024-03-04T05:33:28.635Z,78.19
2024-03-04T05:34:28.498Z,78.19
2024-03-04T05:35:28.553Z,78.29
2024-03-04T05:36:28.675Z,78.29
2024-03-04T05:37:28.596Z,78.19
2024-03-04T05:38:28.432Z,78.29
2024-03-04T05:39:28.646Z,78.19
2024-03-04T05:40:28.467Z,77.86
2024-03-04T05:41:28.457Z,77.76
2024-03-04T05:42:28.493Z,77.76
2024-03-04T05:43:29.366Z,77.56
2024-03-04T05:44:28.428Z,77.46
2024-03-04T05:45:28.414Z,77.46
2024-03-04T05:46:28.555Z,77.56
2024-03-04T05:47:28.373Z,77.69
2024-03-04T05:48:28.339Z,77.89
2024-03-04T05:49:28.370Z,77.89
2024-03-04T05:50:28.617Z,77.80
2024-03-04T05:51:28.346Z,77.89
2024-03-04T05:52:28.385Z,78.19
2024-03-04T05:53:28.364Z,78.29
2024-03-04T05:54:28.266Z,78.19
2024-03-04T05:55:28.466Z,78.49
2024-03-04T05:56:28.172Z,78.49
2024-03-04T05:57:28.254Z,78.49
2024-03-04T05:58:28.284Z,78.29
2024-03-04T05:59:28.314Z,78.29
2024-03-04T06:00:28.307Z,78.49
2024-03-04T06:01:28.150Z,78.59
2024-03-04T06:02:28.311Z,78.73
2024-03-04T06:03:28.190Z,78.83
2024-03-04T06:04:28.222Z,78.83
2024-03-04T06:05:28.133Z,78.83
2024-03-04T06:06:28.251Z,78.63
2024-03-04T06:07:28.212Z,78.63
2024-03-04T06:08:28.159Z,78.73
2024-03-04T06:09:28.317Z,78.73
2024-03-04T06:10:28.064Z,78.63
2024-03-04T06:11:28.595Z,78.63
2024-03-04T06:12:28.154Z,78.63
2024-03-04T06:13:28.291Z,78.83
2024-03-04T06:14:28.208Z,78.92
2024-03-04T06:15:28.107Z,78.92
2024-03-04T06:16:28.096Z,78.83
2024-03-04T06:17:28.144Z,78.92
2024-03-04T06:18:28.043Z,78.92
2024-03-04T06:19:28.092Z,79.03
2024-03-04T06:20:28.111Z,78.83
2024-03-04T06:21:27.951Z,78.63
2024-03-04T06:22:30.560Z,78.73
2024-03-04T06:23:28.065Z,78.83
2024-03-04T06:24:27.959Z,78.92
2024-03-04T06:25:28.903Z,79.03
2024-03-04T06:26:28.071Z,79.03
2024-03-04T06:27:27.977Z,78.92
2024-03-04T06:28:28.017Z,78.63
2024-03-04T06:29:27.957Z,78.73
2024-03-04T06:30:27.995Z,78.63
2024-03-04T06:31:28.054Z,78.33
2024-03-04T06:32:28.272Z,77.73
2024-03-04T06:33:39.975Z,77.83
2024-03-04T06:34:28.005Z,77.73
2024-03-04T06:35:27.940Z,77.73
2024-03-04T06:36:28.034Z,77.33
2024-03-04T06:37:28.058Z,77.43
2024-03-04T06:38:30.293Z,77.03
2024-03-04T06:39:28.025Z,77.09
2024-03-04T06:40:28.096Z,77.00
2024-03-04T06:41:28.242Z,76.90
2024-03-04T06:42:28.397Z,76.70
2024-03-04T06:43:27.755Z,76.79
2024-03-04T06:44:28.093Z,76.70
2024-03-04T06:45:28.844Z,76.60
2024-03-04T06:46:27.825Z,76.40
2024-03-04T06:47:28.019Z,76.50
2024-03-04T06:48:28.906Z,76.10
2024-03-04T06:49:27.922Z,75.70
2024-03-04T06:50:28.648Z,76.00
2024-03-04T06:51:29.743Z,75.44
2024-03-04T06:52:27.958Z,75.64
2024-03-04T06:53:28.881Z,75.64
2024-03-04T06:54:28.132Z,75.84
2024-03-04T06:55:27.925Z,75.84
2024-03-04T06:56:28.037Z,76.04
2024-03-04T06:57:29.653Z,75.94
2024-03-04T06:58:27.866Z,76.00
2024-03-04T06:59:27.757Z,75.44
2024-03-04T07:00:27.954Z,75.14
2024-03-04T07:01:28.070Z,75.44
2024-03-04T07:02:27.780Z,75.64
2024-03-04T07:03:27.597Z,75.54
2024-03-04T07:04:27.696Z,75.54
2024-03-04T07:05:27.612Z,75.64
2024-03-04T07:06:27.823Z,75.64
2024-03-04T07:07:27.962Z,75.74
2024-03-04T07:08:29.455Z,75.44
2024-03-04T07:09:27.812Z,75.84
2024-03-04T07:10:27.552Z,76.04
2024-03-04T07:11:28.458Z,76.04
2024-03-04T07:12:27.878Z,75.84
2024-03-04T07:13:27.774Z,75.94
2024-03-04T07:14:27.746Z,76.04
2024-03-04T07:15:28.290Z,75.84
2024-03-04T07:16:27.977Z,75.94
2024-03-04T07:17:28.869Z,76.04
2024-03-04T07:18:27.912Z,75.94
2024-03-04T07:19:28.014Z,75.84
2024-03-04T07:20:28.111Z,75.94
2024-03-04T07:21:27.917Z,75.94
2024-03-04T07:22:27.835Z,76.04
2024-03-04T07:23:27.809Z,76.04
2024-03-04T07:24:28.005Z,75.94
2024-03-04T07:30:04.332Z,76.14
2024-03-04T07:30:57.662Z,76.04
2024-03-04T07:31:57.713Z,76.04
2024-03-04T07:32:57.738Z,76.04
2024-03-04T07:33:57.677Z,75.84
2024-03-04T07:34:57.602Z,75.94
2024-03-04T07:35:57.647Z,76.04
2024-03-04T07:36:57.607Z,76.14
2024-03-04T07:37:57.661Z,76.14
2024-03-04T07:38:57.609Z,76.04
2024-03-04T07:39:57.563Z,76.24
2024-03-04T07:40:57.540Z,76.14
2024-03-04T07:43:09.192Z,76.54
2024-03-04T07:44:10.035Z,76.67
2024-03-04T07:45:10.062Z,76.77
2024-03-04T07:46:10.139Z,76.73
2024-03-04T07:47:10.009Z,76.73
2024-03-04T07:48:10.021Z,76.73
2024-03-04T07:49:10.154Z,76.73
2024-03-04T07:50:09.979Z,76.83
2024-03-04T07:51:10.008Z,76.83
2024-03-04T07:52:09.933Z,77.07
2024-03-04T07:53:09.949Z,77.27
2024-03-04T07:54:09.929Z,76.77
2024-03-04T07:55:10.029Z,77.07
2024-03-04T07:56:09.950Z,77.07
2024-03-04T07:57:14.659Z,77.17
2024-03-04T07:58:09.967Z,77.37
2024-03-04T07:59:09.834Z,77.37
2024-03-04T08:00:10.786Z,77.27
2024-03-04T08:01:09.867Z,77.47
2024-03-04T08:02:09.882Z,77.81
2024-03-04T08:03:09.863Z,77.87
2024-03-04T08:04:09.950Z,77.97
2024-03-04T08:05:09.782Z,77.77
2024-03-04T08:06:09.860Z,77.67
2024-03-04T08:07:09.851Z,77.67
2024-03-04T08:08:09.793Z,77.47
2024-03-04T08:09:09.856Z,77.47
2024-03-04T08:10:09.952Z,77.67
2024-03-04T08:11:09.762Z,77.77
2024-03-04T08:12:10.238Z,77.87
2024-03-04T08:13:09.783Z,77.87
2024-03-04T08:14:09.755Z,77.87
2024-03-04T08:15:09.802Z,77.97
2024-03-04T08:16:09.730Z,77.87
2024-03-04T08:17:09.787Z,77.97
2024-03-04T08:18:09.694Z,77.97
2024-03-04T08:19:09.754Z,77.87
2024-03-04T08:20:17.065Z,77.97
2024-03-04T08:21:09.715Z,77.97
2024-03-04T08:22:09.719Z,77.87
2024-03-04T08:23:09.642Z,77.87
2024-03-04T08:24:09.626Z,77.57
2024-03-04T08:25:09.626Z,77.57
2024-03-04T08:26:09.546Z,77.87
2024-03-04T08:27:09.630Z,77.87
2024-03-04T08:28:16.924Z,77.97
2024-03-04T08:29:09.707Z,77.97
2024-03-04T08:30:09.545Z,77.87
2024-03-04T08:31:09.697Z,77.87
2024-03-04T08:32:09.577Z,77.97
2024-03-04T08:33:09.614Z,78.07
2024-03-04T08:34:09.524Z,78.07
2024-03-04T08:35:09.492Z,77.77
2024-03-04T08:36:09.523Z,77.97
2024-03-04T08:37:09.598Z,77.97
2024-03-04T08:38:09.518Z,78.41
2024-03-04T08:39:09.470Z,78.80
2024-03-04T08:40:09.574Z,78.90
2024-03-04T08:41:09.457Z,78.90
2024-03-04T08:42:09.429Z,78.80
2024-03-04T08:43:09.481Z,78.80
2024-03-04T08:44:09.410Z,78.56
2024-03-04T08:45:09.557Z,78.47
2024-03-04T08:46:09.530Z,78.47
2024-03-04T08:47:11.541Z,78.17
2024-03-04T08:48:09.555Z,78.41
2024-03-04T08:49:09.463Z,78.56
2024-03-04T08:50:09.315Z,78.60
2024-03-04T08:51:09.349Z,78.90
2024-03-04T08:52:09.388Z,78.90
2024-03-04T08:53:09.273Z,78.90
2024-03-04T08:54:09.227Z,79.00
2024-03-04T08:55:09.296Z,79.10
2024-03-04T08:56:09.218Z,79.00
2024-03-04T08:57:09.288Z,78.90
2024-03-04T08:58:09.335Z,78.80
2024-03-04T08:59:09.250Z,78.70
2024-03-04T09:00:09.172Z,78.67
2024-03-04T09:01:09.549Z,78.67
2024-03-04T09:02:09.222Z,78.67
2024-03-04T09:03:09.174Z,78.56
2024-03-04T09:04:09.240Z,78.47
2024-03-04T09:05:09.127Z,78.47
2024-03-04T09:06:09.098Z,78.37
2024-03-04T09:07:09.370Z,78.47
2024-03-04T09:08:09.154Z,78.67
2024-03-04T09:09:09.068Z,78.67
2024-03-04T09:10:09.210Z,78.77
2024-03-04T09:11:09.178Z,78.97
2024-03-04T09:12:08.998Z,78.90
2024-03-04T09:13:09.152Z,79.10
2024-03-04T09:14:09.086Z,79.20
2024-03-04T09:15:09.017Z,79.10
2024-03-04T09:16:09.059Z,78.97
2024-03-04T09:17:09.063Z,78.97
2024-03-04T09:18:09.019Z,78.86
2024-03-04T09:19:09.042Z,78.86
2024-03-04T09:20:08.906Z,78.97
2024-03-04T09:21:09.034Z,78.97
2024-03-04T09:22:08.992Z,78.86
2024-03-04T09:23:09.082Z,78.86
2024-03-04T09:24:08.880Z,78.86
2024-03-04T09:25:09.029Z,78.77
2024-03-04T09:26:08.990Z,78.86
2024-03-04T09:27:08.870Z,78.97
2024-03-04T09:28:08.899Z,78.97
2024-03-04T09:29:08.889Z,79.06
2024-03-04T09:30:08.853Z,79.16
2024-03-04T09:31:08.931Z,79.27
2024-03-04T09:32:08.860Z,79.20
2024-03-04T09:33:09.019Z,79.27
2024-03-04T09:34:08.857Z,79.20
2024-03-04T09:35:08.807Z,79.20
2024-03-04T09:36:08.785Z,79.30
2024-03-04T09:37:08.812Z,79.30
2024-03-04T09:38:08.794Z,79.30
2024-03-04T09:39:09.675Z,79.27
2024-03-04T09:40:08.780Z,79.36
2024-03-04T09:41:08.776Z,79.36
2024-03-04T09:42:08.738Z,79.46
2024-03-04T09:43:08.765Z,79.46
2024-03-04T09:44:08.716Z,79.36
2024-03-04T09:45:08.701Z,79.27
2024-03-04T09:46:08.788Z,79.16
2024-03-04T09:47:08.710Z,79.36
2024-03-04T09:48:10.347Z,79.27
2024-03-04T09:49:08.686Z,79.27
2024-03-04T09:50:08.617Z,79.27
2024-03-04T09:51:08.669Z,79.36
2024-03-04T09:52:08.670Z,79.36
2024-03-04T09:53:08.656Z,79.46
2024-03-04T09:54:08.614Z,79.57
2024-03-04T09:55:08.601Z,79.27
2024-03-04T09:56:08.565Z,79.16
2024-03-04T09:57:08.607Z,78.77
2024-03-04T09:58:08.587Z,78.97
2024-03-04T09:59:08.828Z,79.16
2024-03-04T10:00:08.694Z,79.16
2024-03-04T10:01:08.585Z,79.27
2024-03-04T10:02:08.565Z,79.36
2024-03-04T10:03:08.500Z,79.27
2024-03-04T10:04:08.482Z,79.06
2024-03-04T10:05:08.480Z,78.86
2024-03-04T10:06:08.534Z,78.56
2024-03-04T10:07:08.534Z,78.67
2024-03-04T10:08:08.423Z,78.77
2024-03-04T10:09:08.408Z,78.73
2024-03-04T10:10:08.472Z,78.73
2024-03-04T10:11:09.156Z,78.53
2024-03-04T10:12:08.568Z,78.63
2024-03-04T10:13:08.395Z,78.43
2024-03-04T10:14:08.407Z,78.53
2024-03-04T10:15:08.582Z,78.73
2024-03-04T10:16:08.391Z,78.92
2024-03-04T10:17:08.346Z,79.03
2024-03-04T10:18:08.357Z,79.03
2024-03-04T10:19:08.295Z,78.92
2024-03-04T10:20:08.313Z,78.73
2024-03-04T10:21:08.388Z,78.63
2024-03-04T10:22:08.309Z,78.53
2024-03-04T10:23:08.330Z,78.43
2024-03-04T10:24:08.351Z,78.33
2024-03-04T10:25:08.287Z,78.23
2024-03-04T10:26:08.279Z,78.13
2024-03-04T10:27:08.275Z,78.03
2024-03-04T10:28:08.316Z,77.73
2024-03-04T10:29:08.413Z,78.03
2024-03-04T10:30:08.203Z,78.23
2024-03-04T10:31:08.225Z,78.23
2024-03-04T10:32:08.270Z,77.83
2024-03-04T10:33:08.273Z,77.73
2024-03-04T10:34:08.145Z,77.99
2024-03-04T10:35:08.242Z,77.59
2024-03-04T10:36:08.132Z,77.80
2024-03-04T10:37:08.162Z,77.99
2024-03-04T10:38:08.170Z,78.09
2024-03-04T10:39:08.142Z,78.29
2024-03-04T10:40:08.147Z,78.19
2024-03-04T10:41:08.059Z,78.19
2024-03-04T10:42:08.079Z,77.99
2024-03-04T10:43:08.150Z,77.89
2024-03-04T10:44:08.083Z,77.39
2024-03-04T10:45:08.074Z,76.79
2024-03-04T10:46:08.091Z,77.00
2024-03-04T10:47:08.016Z,77.00
2024-03-04T10:48:08.108Z,77.26
2024-03-04T10:49:08.031Z,77.16
2024-03-04T10:50:08.016Z,76.86
2024-03-04T10:51:07.997Z,76.86
2024-03-04T10:52:13.655Z,76.96
2024-03-04T10:53:08.122Z,76.96
2024-03-04T10:54:07.968Z,76.86
2024-03-04T10:55:07.994Z,76.13
2024-03-04T10:56:08.009Z,76.03
2024-03-04T10:57:07.981Z,75.93
2024-03-04T10:58:07.999Z,75.83
2024-03-04T10:59:07.901Z,75.73
2024-03-04T11:00:07.898Z,75.83
2024-03-04T11:01:08.032Z,75.89
2024-03-04T11:02:08.436Z,75.89
2024-03-04T11:03:07.853Z,75.79
2024-03-04T11:04:07.999Z,75.40
2024-03-04T11:05:07.868Z,75.20
2024-03-04T11:06:07.870Z,75.10
2024-03-04T11:07:07.783Z,74.46
2024-03-04T11:08:08.089Z,73.97
2024-03-04T11:09:07.957Z,73.67
2024-03-04T11:10:07.927Z,74.07
2024-03-04T11:11:07.871Z,73.97
2024-03-04T11:12:07.787Z,73.67
2024-03-04T11:13:07.784Z,73.03
2024-03-04T11:14:08.019Z,73.14
2024-03-04T11:15:07.925Z,73.03
2024-03-04T11:16:07.807Z,72.94
2024-03-04T11:17:07.817Z,73.20
2024-03-04T11:18:07.722Z,72.90
2024-03-04T11:19:07.704Z,72.80
2024-03-04T11:20:07.744Z,72.47
2024-03-04T11:21:07.725Z,71.78
2024-03-04T11:22:07.673Z,71.37
2024-03-04T11:23:07.662Z,71.48
2024-03-04T11:24:07.660Z,71.54
2024-03-04T11:25:07.731Z,71.44
2024-03-04T11:26:07.788Z,70.95
2024-03-04T11:27:07.589Z,71.04
2024-03-04T11:28:07.649Z,71.34
2024-03-04T11:29:07.587Z,71.31
2024-03-04T11:30:07.603Z,71.11
2024-03-04T11:31:07.628Z,70.72
2024-03-04T11:32:07.611Z,70.62
2024-03-04T11:33:07.538Z,70.48
2024-03-04T11:34:07.569Z,69.89
2024-03-04T11:35:07.876Z,69.49
2024-03-04T11:36:07.660Z,69.29
2024-03-04T11:37:07.573Z,69.49
2024-03-04T11:38:07.557Z,69.59
2024-03-04T11:39:07.473Z,69.36
2024-03-04T11:40:07.528Z,69.46
2024-03-04T11:41:07.515Z,68.76
2024-03-04T11:42:07.495Z,69.36
2024-03-04T11:43:07.457Z,67.77
2024-03-04T11:44:07.491Z,68.66
2024-03-04T11:45:07.402Z,68.76
2024-03-04T11:46:07.523Z,69.16
2024-03-04T11:47:07.432Z,69.95
2024-03-04T11:48:07.440Z,68.73
2024-03-04T11:49:07.407Z,68.63
2024-03-04T11:50:07.393Z,69.02
2024-03-04T11:51:08.055Z,68.73
2024-03-04T11:52:07.954Z,67.64
2024-03-04T11:53:07.327Z,67.35
2024-03-04T11:54:07.440Z,67.54
2024-03-04T11:55:07.691Z,67.51
2024-03-04T11:56:07.292Z,67.71
2024-03-04T11:57:07.388Z,67.71
2024-03-04T11:58:07.313Z,67.51
2024-03-04T11:59:07.265Z,66.32
2024-03-04T12:00:07.260Z,66.39
2024-03-04T12:01:13.438Z,66.09
2024-03-04T12:02:07.413Z,66.58
2024-03-04T12:03:07.564Z,65.80
2024-03-04T12:04:07.272Z,66.09
2024-03-04T12:05:07.227Z,65.80
2024-03-04T12:06:07.394Z,66.29
2024-03-04T12:07:07.394Z,66.09
2024-03-04T12:08:16.535Z,65.77
2024-03-04T12:09:27.141Z,65.56
2024-03-04T12:10:15.914Z,65.77
2024-03-04T12:11:07.273Z,65.56
2024-03-04T12:12:07.658Z,65.86
2024-03-04T12:13:07.236Z,65.56
2024-03-04T12:14:07.080Z,64.08
2024-03-04T12:15:07.196Z,63.98
2024-03-04T12:16:07.220Z,64.58
2024-03-04T12:17:07.120Z,64.38
2024-03-04T12:18:07.166Z,64.15
2024-03-04T12:19:07.301Z,64.25
2024-03-04T12:20:07.228Z,64.74
2024-03-04T12:21:07.758Z,64.35
2024-03-04T12:22:07.257Z,64.15
2024-03-04T12:23:07.043Z,64.45
2024-03-04T12:24:07.045Z,63.85
2024-03-04T12:25:07.351Z,62.87
2024-03-04T12:26:07.092Z,64.25
2024-03-04T12:27:06.993Z,64.15
2024-03-04T12:28:06.973Z,63.85
2024-03-04T12:29:06.991Z,63.85
2024-03-04T12:30:07.000Z,63.75
2024-03-04T12:31:07.040Z,63.95
2024-03-04T12:32:07.003Z,63.62
2024-03-04T12:33:06.941Z,63.33
2024-03-04T12:34:07.020Z,62.63
2024-03-04T12:35:06.992Z,62.63
2024-03-04T12:36:06.939Z,62.93
2024-03-04T12:37:06.978Z,62.93
2024-03-04T12:38:07.152Z,62.34
2024-03-04T12:39:06.833Z,62.24
2024-03-04T12:40:07.235Z,62.34
2024-03-04T12:41:07.062Z,62.44
2024-03-04T12:42:06.867Z,62.54
2024-03-04T12:43:07.010Z,62.63
2024-03-04T12:44:06.995Z,62.04
2024-03-04T12:45:06.868Z,62.21
2024-03-04T12:46:07.219Z,62.01
2024-03-04T12:47:06.769Z,62.12
2024-03-04T12:48:09.243Z,62.51
2024-03-04T12:49:08.487Z,63.10
2024-03-04T12:50:06.872Z,61.42
2024-03-04T12:51:06.716Z,61.82
2024-03-04T12:52:06.845Z,62.41
2024-03-04T12:53:06.716Z,63.00
2024-03-04T12:54:06.733Z,62.41
2024-03-04T12:55:06.669Z,62.08
2024-03-04T12:56:06.678Z,61.88
2024-03-04T12:57:06.666Z,61.79
2024-03-04T12:58:06.678Z,62.08